Time;durP1;ratioP1;P1;durP2;ratioP2;P2;SDS_P1;SDS_P2;PMS_P1;PMS_P2;Temp;Humidity;BMP_temperature;BMP_pressure;BME280_temperature;BME280_humidity;BME280_pressure;Samples;Min_cycle;Max_cycle;Signal;HPM_P1;HPM_P2
2022/10/18 00:01:01;;;;;;;13.90;7.50;;;16.40;83.10;;;;;;5013288;28;20457;-80
2022/10/18 00:03:29;;;;;;;12.97;6.20;;;16.40;83.10;;;;;;4993555;28;20466;-81
2022/10/18 00:05:57;;;;;;;21.17;5.97;;;16.40;83.10;;;;;;5002908;28;20523;-79
2022/10/18 00:08:26;;;;;;;18.23;6.20;;;16.40;83.10;;;;;;5007621;28;20460;-81
2022/10/18 00:10:54;;;;;;;11.57;6.60;;;16.40;83.20;;;;;;5001068;28;20449;-78
2022/10/18 00:13:23;;;;;;;18.37;6.87;;;16.40;83.20;;;;;;5003821;28;20445;-80
2022/10/18 00:15:52;;;;;;;10.83;6.37;;;16.40;83.10;;;;;;4995933;28;20460;-81
2022/10/18 00:18:22;;;;;;;11.60;6.50;;;16.30;82.90;;;;;;4996693;28;20473;-81
2022/10/18 00:20:58;;;;;;;13.60;7.20;;;16.30;83.20;;;;;;5002295;28;20457;-80
2022/10/18 00:23:26;;;;;;;11.90;6.80;;;16.30;83.20;;;;;;5008849;28;20456;-79
2022/10/18 00:26:06;;;;;;;12.80;6.70;;;16.30;83.20;;;;;;5020154;28;20500;-79
2022/10/18 00:28:35;;;;;;;14.33;7.17;;;16.40;83.10;;;;;;4995921;28;20446;-80
2022/10/18 00:31:11;;;;;;;13.63;6.20;;;16.30;83.10;;;;;;5004213;28;20504;-79
2022/10/18 00:33:41;;;;;;;11.53;6.77;;;16.30;82.90;;;;;;5023040;28;20460;-80
2022/10/18 00:36:09;;;;;;;17.73;8.53;;;16.30;82.90;;;;;;5008457;28;20999;-80
2022/10/18 00:38:38;;;;;;;25.57;7.73;;;16.30;82.90;;;;;;5024200;28;21227;-80
2022/10/18 00:41:09;;;;;;;13.03;7.33;;;16.30;82.90;;;;;;5016933;28;20511;-79
2022/10/18 00:43:58;;;;;;;15.17;6.70;;;16.30;82.90;;;;;;5001132;28;20815;-80
2022/10/18 00:46:29;;;;;;;13.27;7.40;;;16.30;82.90;;;;;;5018976;28;20463;-80
2022/10/18 00:49:00;;;;;;;9.77;6.30;;;16.30;82.90;;;;;;5003782;28;20450;-80
2022/10/18 00:51:33;;;;;;;11.60;7.70;;;16.30;82.90;;;;;;5010789;28;21005;-81
2022/10/18 00:54:01;;;;;;;12.23;6.40;;;16.30;82.90;;;;;;4998594;28;20476;-81
2022/10/18 00:56:29;;;;;;;15.50;7.10;;;16.30;82.90;;;;;;4997049;28;20448;-81
2022/10/18 00:58:58;;;;;;;14.07;6.87;;;16.30;82.90;;;;;;5001404;28;20567;-81
2022/10/18 01:01:26;;;;;;;16.40;7.50;;;16.30;82.90;;;;;;5010153;28;20476;-79
2022/10/18 01:03:57;;;;;;;23.80;7.70;;;16.30;82.90;;;;;;4998003;28;20875;-79
2022/10/18 01:06:27;;;;;;;16.00;6.20;;;16.30;82.70;;;;;;5001844;28;20528;-79
2022/10/18 01:09:14;;;;;;;10.67;6.83;;;16.30;82.70;;;;;;5001742;28;21016;-81
2022/10/18 01:12:00;;;;;;;15.33;7.30;;;16.20;82.80;;;;;;5006845;28;20483;-81
2022/10/18 01:14:39;;;;;;;13.17;7.80;;;16.20;82.80;;;;;;4997812;28;20452;-81
2022/10/18 01:17:15;;;;;;;12.63;7.43;;;16.20;82.90;;;;;;4999813;28;20903;-80
2022/10/18 01:20:18;;;;;;;11.73;7.57;;;16.20;83.00;;;;;;5017556;28;20464;-81
2022/10/18 01:22:54;;;;;;;13.90;7.90;;;16.20;82.90;;;;;;5002738;28;20475;-80
2022/10/18 01:25:37;;;;;;;14.53;7.40;;;16.20;82.90;;;;;;4998146;28;20951;-80
2022/10/18 01:28:16;;;;;;;15.23;7.20;;;16.20;83.00;;;;;;5004611;28;20459;-80
2022/10/18 01:30:57;;;;;;;16.00;8.00;;;16.20;83.00;;;;;;4999713;28;20490;-80
2022/10/18 01:33:33;;;;;;;17.43;8.37;;;16.20;83.10;;;;;;5015032;28;20461;-80
2022/10/18 01:36:07;;;;;;;16.80;7.90;;;16.20;83.20;;;;;;5002365;28;21225;-79
2022/10/18 01:38:38;;;;;;;21.80;8.07;;;16.20;83.20;;;;;;4995498;28;20480;-80
2022/10/18 01:41:07;;;;;;;22.17;9.27;;;16.20;83.20;;;;;;4998342;28;20526;-81
2022/10/18 01:43:43;;;;;;;17.43;9.60;;;16.30;83.30;;;;;;5020737;28;20962;-78
2022/10/18 01:46:15;;;;;;;17.63;9.00;;;16.30;83.40;;;;;;5003886;28;20513;-80
2022/10/18 01:48:44;;;;;;;22.80;10.53;;;16.30;83.40;;;;;;5007325;28;20450;-80
2022/10/18 01:51:12;;;;;;;16.57;9.60;;;16.30;83.40;;;;;;5000325;28;20508;-80
2022/10/18 01:53:40;;;;;;;16.80;9.07;;;16.40;83.40;;;;;;5000141;28;20462;-79
2022/10/18 01:56:32;;;;;;;13.97;7.80;;;16.40;83.40;;;;;;5004741;28;21107;-79
2022/10/18 01:59:17;;;;;;;11.10;6.43;;;16.40;83.40;;;;;;4989525;28;20481;-80
2022/10/18 02:01:53;;;;;;;16.87;8.53;;;16.40;83.40;;;;;;5011970;28;20485;-81
2022/10/18 02:04:29;;;;;;;12.43;8.60;;;16.40;83.40;;;;;;5001451;28;20484;-80
2022/10/18 02:07:05;;;;;;;13.93;9.00;;;16.40;83.30;;;;;;5017376;28;20495;-79
2022/10/18 02:09:38;;;;;;;12.97;8.30;;;16.40;83.40;;;;;;5003575;28;20448;-79
2022/10/18 02:12:09;;;;;;;17.60;8.80;;;16.40;83.50;;;;;;4997291;28;20560;-81
2022/10/18 02:14:38;;;;;;;12.27;8.07;;;16.40;83.60;;;;;;5006072;28;20468;-81
2022/10/18 02:17:10;;;;;;;11.30;7.13;;;16.40;83.60;;;;;;4998070;28;20954;-80
2022/10/18 02:19:41;;;;;;;12.70;8.30;;;16.40;83.70;;;;;;4994596;28;20540;-79
2022/10/18 02:22:11;;;;;;;15.23;8.30;;;16.40;83.70;;;;;;5001349;28;20882;-79
2022/10/18 02:24:49;;;;;;;16.97;9.07;;;16.50;83.70;;;;;;4996872;28;20958;-81
2022/10/18 02:27:18;;;;;;;15.80;9.67;;;16.50;83.60;;;;;;4993550;28;20512;-79
2022/10/18 02:29:46;;;;;;;20.33;10.33;;;16.50;83.60;;;;;;5003194;28;20448;-79
2022/10/18 02:32:21;;;;;;;18.03;9.17;;;16.50;83.60;;;;;;5004354;28;21286;-80
2022/10/18 02:34:57;;;;;;;17.90;9.07;;;16.50;83.70;;;;;;5003692;28;21161;-81
2022/10/18 02:37:30;;;;;;;17.93;9.10;;;16.50;83.70;;;;;;5002605;28;20449;-80
2022/10/18 02:39:59;;;;;;;17.33;8.63;;;16.50;83.70;;;;;;5004562;28;20465;-79
2022/10/18 02:42:33;;;;;;;17.17;9.40;;;16.50;83.70;;;;;;4993271;28;20488;-80
2022/10/18 02:45:01;;;;;;;14.47;9.00;;;16.50;83.70;;;;;;5015467;28;20499;-80
2022/10/18 02:47:30;;;;;;;15.17;8.80;;;16.50;83.70;;;;;;4998101;28;20466;-81
2022/10/18 02:49:59;;;;;;;13.40;8.67;;;16.50;83.80;;;;;;5003838;28;20441;-80
2022/10/18 02:52:27;;;;;;;18.80;9.10;;;16.50;83.90;;;;;;5001827;28;20989;-81
2022/10/18 02:54:55;;;;;;;16.23;8.70;;;16.60;83.90;;;;;;5014150;28;20449;-81
2022/10/18 02:57:22;;;;;;;14.23;8.40;;;16.60;83.90;;;;;;5000334;28;20452;-81
2022/10/18 02:59:50;;;;;;;14.47;8.50;;;16.60;84.00;;;;;;5004545;28;20477;-82
2022/10/18 03:02:19;;;;;;;14.50;7.90;;;16.60;84.00;;;;;;5017999;28;20550;-81
2022/10/18 03:04:48;;;;;;;19.80;9.20;;;16.60;84.00;;;;;;4997553;28;20454;-80
2022/10/18 03:07:16;;;;;;;16.33;8.53;;;16.60;84.00;;;;;;5009680;28;20735;-81
2022/10/18 03:09:44;;;;;;;12.77;7.67;;;16.60;84.00;;;;;;5006628;28;20512;-79
2022/10/18 03:12:12;;;;;;;14.10;8.83;;;16.60;84.10;;;;;;5007094;28;20860;-80
2022/10/18 03:14:40;;;;;;;21.80;8.83;;;16.60;84.10;;;;;;5009690;28;21017;-80
2022/10/18 03:17:08;;;;;;;14.17;7.70;;;16.60;84.10;;;;;;5006871;28;20456;-80
2022/10/18 03:19:37;;;;;;;14.40;8.17;;;16.60;84.20;;;;;;5004688;28;21026;-79
2022/10/18 03:22:06;;;;;;;12.93;7.53;;;16.70;84.20;;;;;;5021587;28;20485;-79
2022/10/18 03:24:34;;;;;;;16.90;7.70;;;16.70;84.20;;;;;;4993793;28;21026;-80
2022/10/18 03:27:02;;;;;;;21.00;8.07;;;16.70;84.20;;;;;;5021802;28;20457;-81
2022/10/18 03:29:30;;;;;;;14.23;7.97;;;16.60;84.30;;;;;;4998567;28;20452;-79
2022/10/18 03:31:58;;;;;;;14.97;7.93;;;16.70;84.30;;;;;;5019970;28;20539;-80
2022/10/18 03:34:26;;;;;;;13.70;7.77;;;16.70;84.40;;;;;;5004878;28;20460;-82
2022/10/18 03:36:56;;;;;;;18.97;8.60;;;16.70;84.40;;;;;;4992769;28;20548;-79
2022/10/18 03:39:28;;;;;;;10.47;6.90;;;16.70;84.40;;;;;;5015643;28;20488;-79
2022/10/18 03:41:56;;;;;;;15.60;7.70;;;16.70;84.50;;;;;;5002444;28;20480;-79
2022/10/18 03:44:24;;;;;;;13.10;8.10;;;16.70;84.50;;;;;;5009160;28;20733;-80
2022/10/18 03:46:52;;;;;;;13.63;7.50;;;16.70;84.50;;;;;;4998297;28;20511;-81
2022/10/18 03:49:19;;;;;;;10.33;6.53;;;16.70;84.50;;;;;;4999322;28;20491;-81
2022/10/18 03:51:47;;;;;;;14.00;7.63;;;16.70;84.60;;;;;;4991859;28;20561;-80
2022/10/18 03:54:15;;;;;;;14.23;7.37;;;16.70;84.60;;;;;;5002657;28;20438;-79
2022/10/18 03:56:45;;;;;;;15.10;8.30;;;16.70;84.70;;;;;;5001083;28;20528;-79
2022/10/18 03:59:13;;;;;;;11.70;6.50;;;16.70;84.80;;;;;;5027665;28;21032;-79
2022/10/18 04:01:41;;;;;;;14.77;7.43;;;16.70;84.80;;;;;;5005608;28;20535;-81
2022/10/18 04:04:09;;;;;;;14.47;7.30;;;16.70;84.80;;;;;;5004904;28;20452;-81
2022/10/18 04:06:37;;;;;;;16.23;8.37;;;16.70;84.90;;;;;;5008542;28;20494;-79
2022/10/18 04:09:05;;;;;;;12.33;7.37;;;16.70;84.90;;;;;;5007941;28;20453;-81
2022/10/18 04:11:37;;;;;;;12.20;6.70;;;16.70;84.90;;;;;;4999592;28;20491;-80
2022/10/18 04:14:06;;;;;;;16.33;8.13;;;16.80;85.00;;;;;;5024243;28;20462;-80
2022/10/18 04:16:34;;;;;;;12.10;7.00;;;16.80;85.00;;;;;;5001339;28;20453;-80
2022/10/18 04:19:03;;;;;;;14.03;8.37;;;16.80;85.10;;;;;;5009821;28;20465;-81
2022/10/18 04:21:31;;;;;;;12.60;7.53;;;16.80;85.10;;;;;;5004528;28;20476;-80
2022/10/18 04:23:59;;;;;;;15.30;8.07;;;16.80;85.10;;;;;;5010775;28;20460;-79
2022/10/18 04:26:27;;;;;;;11.30;6.77;;;16.80;85.10;;;;;;5006799;28;21217;-80
2022/10/18 04:28:55;;;;;;;10.17;7.10;;;16.80;85.20;;;;;;5009209;28;20564;-79
2022/10/18 04:31:25;;;;;;;17.73;8.27;;;16.80;85.20;;;;;;4998651;28;20481;-80
2022/10/18 04:33:53;;;;;;;10.53;6.67;;;16.80;85.20;;;;;;5014138;28;20520;-79
2022/10/18 04:36:21;;;;;;;13.70;7.20;;;16.80;85.20;;;;;;4999148;28;20449;-80
2022/10/18 04:38:49;;;;;;;15.90;7.40;;;16.80;85.30;;;;;;5005968;28;20950;-80
2022/10/18 04:41:17;;;;;;;10.43;7.00;;;16.80;85.30;;;;;;5004657;28;20469;-81
2022/10/18 04:43:45;;;;;;;11.07;6.27;;;16.80;85.30;;;;;;5004865;28;20862;-80
2022/10/18 04:46:18;;;;;;;10.20;6.90;;;16.80;85.30;;;;;;5003764;28;20457;-79
2022/10/18 04:48:47;;;;;;;9.60;6.80;;;16.80;85.30;;;;;;5007992;28;20453;-79
2022/10/18 04:51:15;;;;;;;17.20;7.50;;;16.80;85.30;;;;;;5001051;28;20472;-80
2022/10/18 04:53:43;;;;;;;12.20;7.30;;;16.90;85.40;;;;;;5001077;28;20866;-81
2022/10/18 04:56:11;;;;;;;9.90;7.57;;;16.80;85.40;;;;;;5003718;28;20461;-81
2022/10/18 04:58:39;;;;;;;10.60;7.10;;;16.90;85.40;;;;;;5002424;28;20461;-79
2022/10/18 05:01:08;;;;;;;14.07;7.53;;;16.90;85.40;;;;;;5002698;28;20484;-82
2022/10/18 05:03:36;;;;;;;10.50;6.63;;;16.90;85.40;;;;;;5004807;28;20449;-79
2022/10/18 05:06:06;;;;;;;10.33;6.70;;;16.90;85.40;;;;;;4995656;28;20454;-79
2022/10/18 05:08:35;;;;;;;11.33;7.50;;;16.80;85.40;;;;;;4998402;28;20515;-80
2022/10/18 05:11:04;;;;;;;12.70;7.27;;;16.80;85.40;;;;;;5005547;28;20464;-79
2022/10/18 05:13:32;;;;;;;12.57;7.00;;;16.80;85.40;;;;;;5024185;28;20970;-79
2022/10/18 05:16:01;;;;;;;12.47;7.67;;;16.80;85.40;;;;;;5006141;28;20465;-79
2022/10/18 05:18:29;;;;;;;20.90;7.83;;;16.80;85.40;;;;;;5014574;28;20465;-81
2022/10/18 05:20:57;;;;;;;11.63;7.17;;;16.80;85.50;;;;;;5005280;28;20474;-81
2022/10/18 05:23:26;;;;;;;13.40;7.70;;;16.80;85.50;;;;;;5006276;28;21319;-79
2022/10/18 05:25:54;;;;;;;13.50;7.60;;;16.80;85.50;;;;;;4998083;28;20453;-78
2022/10/18 05:28:23;;;;;;;12.40;8.13;;;16.80;85.50;;;;;;5018127;28;20456;-81
2022/10/18 05:31:09;;;;;;;14.73;7.73;;;16.80;85.50;;;;;;4999057;28;20523;-82
2022/10/18 05:33:37;;;;;;;13.90;8.10;;;16.80;85.50;;;;;;5003941;28;20462;-79
2022/10/18 05:36:06;;;;;;;12.40;7.63;;;16.80;85.50;;;;;;5005941;28;20509;-81
2022/10/18 05:38:39;;;;;;;11.97;7.27;;;16.80;85.50;;;;;;5004877;28;21020;-81
2022/10/18 05:41:06;;;;;;;10.20;7.20;;;16.70;85.40;;;;;;4999266;28;20493;-80
2022/10/18 05:43:35;;;;;;;13.10;8.07;;;16.70;85.40;;;;;;4999817;28;20454;-79
2022/10/18 05:46:03;;;;;;;14.00;7.23;;;16.70;85.40;;;;;;5000344;28;20458;-80
2022/10/18 05:48:31;;;;;;;13.27;7.70;;;16.70;85.50;;;;;;4997317;28;20547;-81
2022/10/18 05:50:59;;;;;;;11.00;7.67;;;16.70;85.60;;;;;;5002393;28;20487;-81
2022/10/18 05:53:28;;;;;;;12.73;7.90;;;16.70;85.60;;;;;;5017067;28;20458;-80
2022/10/18 05:56:06;;;;;;;15.17;7.60;;;16.70;85.50;;;;;;4999874;28;20449;-79
2022/10/18 05:58:35;;;;;;;12.30;7.30;;;16.70;85.50;;;;;;5001709;28;20453;-79
2022/10/18 06:01:05;;;;;;;9.97;6.87;;;16.70;85.50;;;;;;4996362;28;20595;-78
2022/10/18 06:03:33;;;;;;;11.43;7.60;;;16.70;85.50;;;;;;5002960;28;20468;-79
2022/10/18 06:06:01;;;;;;;13.10;7.27;;;16.70;85.50;;;;;;4999213;28;20500;-79
2022/10/18 06:08:29;;;;;;;13.93;7.43;;;16.70;85.40;;;;;;4997969;28;20569;-81
2022/10/18 06:10:57;;;;;;;13.10;7.97;;;16.60;85.40;;;;;;4997922;28;20933;-81
2022/10/18 06:13:27;;;;;;;13.60;9.00;;;16.60;85.40;;;;;;5002186;28;20521;-80
2022/10/18 06:15:59;;;;;;;9.53;7.10;;;16.60;85.50;;;;;;5002379;28;21021;-79
2022/10/18 06:18:28;;;;;;;12.00;7.73;;;16.60;85.50;;;;;;5014623;28;20594;-81
2022/10/18 06:20:57;;;;;;;15.90;8.40;;;16.60;85.50;;;;;;5005548;28;20523;-80
2022/10/18 06:23:26;;;;;;;18.40;8.67;;;16.60;85.50;;;;;;5010326;28;20943;-79
2022/10/18 06:25:57;;;;;;;10.87;8.57;;;16.60;85.40;;;;;;5003334;28;20452;-79
2022/10/18 06:28:27;;;;;;;12.63;7.60;;;16.60;85.50;;;;;;5020203;28;20449;-79
2022/10/18 06:30:56;;;;;;;10.50;7.23;;;16.60;85.50;;;;;;4998951;28;20974;-81
2022/10/18 06:33:24;;;;;;;9.93;6.77;;;16.60;85.50;;;;;;5006771;28;20448;-80
2022/10/18 06:35:57;;;;;;;11.57;8.13;;;16.60;85.50;;;;;;5014518;28;20514;-78
2022/10/18 06:38:26;;;;;;;12.63;7.07;;;16.60;85.50;;;;;;5005186;28;20457;-79
2022/10/18 06:40:55;;;;;;;12.33;7.50;;;16.60;85.50;;;;;;5014650;28;20478;-80
2022/10/18 06:43:23;;;;;;;15.30;7.80;;;16.60;85.50;;;;;;5004556;28;20510;-80
2022/10/18 06:45:54;;;;;;;11.13;7.90;;;16.60;85.40;;;;;;4996910;28;20454;-78
2022/10/18 06:48:22;;;;;;;10.47;6.87;;;16.60;85.40;;;;;;5014401;28;20471;-78
2022/10/18 06:50:52;;;;;;;10.47;7.43;;;16.60;85.40;;;;;;4994192;28;20445;-80
2022/10/18 06:53:20;;;;;;;11.27;6.93;;;16.60;85.40;;;;;;5000319;28;20826;-79
2022/10/18 06:55:48;;;;;;;10.10;6.17;;;16.60;85.40;;;;;;4998551;28;20872;-80
2022/10/18 06:58:16;;;;;;;10.10;6.57;;;16.60;85.40;;;;;;5004688;28;20524;-81
2022/10/18 07:00:45;;;;;;;10.00;8.10;;;16.60;85.50;;;;;;4999143;28;20477;-79
2022/10/18 07:03:15;;;;;;;12.47;9.20;;;16.60;85.40;;;;;;4991844;28;20466;-79
2022/10/18 07:05:43;;;;;;;12.43;8.90;;;16.60;85.40;;;;;;4997998;28;20472;-79
2022/10/18 07:08:11;;;;;;;17.70;12.73;;;16.60;85.50;;;;;;4995967;28;21030;-78
2022/10/18 07:10:39;;;;;;;19.50;13.70;;;16.60;85.60;;;;;;5015588;28;20445;-79
2022/10/18 07:13:07;;;;;;;17.57;13.87;;;16.60;85.60;;;;;;5000285;28;20997;-79
2022/10/18 07:16:04;;;;;;;23.67;14.97;;;16.60;85.70;;;;;;5011359;28;20464;-79
2022/10/18 07:18:34;;;;;;;19.30;13.33;;;16.60;85.80;;;;;;4998056;28;20553;-80
2022/10/18 07:21:03;;;;;;;18.90;12.50;;;16.70;85.90;;;;;;5003297;28;20567;-81
2022/10/18 07:23:32;;;;;;;20.13;11.83;;;16.70;85.90;;;;;;5002530;28;20510;-81
2022/10/18 07:26:01;;;;;;;18.63;11.10;;;16.80;85.90;;;;;;5001306;28;20445;-80
2022/10/18 07:28:30;;;;;;;17.37;11.00;;;16.80;85.90;;;;;;5003278;28;20467;-79
2022/10/18 07:31:03;;;;;;;19.97;11.97;;;16.80;85.90;;;;;;4999319;28;20454;-79
2022/10/18 07:33:36;;;;;;;20.23;10.20;;;16.80;85.90;;;;;;5004017;28;20460;-79
2022/10/18 07:36:07;;;;;;;14.43;10.40;;;16.90;85.90;;;;;;5000051;28;20472;-80
2022/10/18 07:38:36;;;;;;;17.80;11.60;;;16.90;85.90;;;;;;4998917;28;20868;-80
2022/10/18 07:41:06;;;;;;;19.50;13.40;;;16.90;85.90;;;;;;4999333;28;20847;-81
2022/10/18 07:43:35;;;;;;;16.97;12.37;;;16.90;85.90;;;;;;5015999;28;20516;-81
2022/10/18 07:46:05;;;;;;;15.13;11.80;;;16.90;85.90;;;;;;4997420;28;20457;-78
2022/10/18 07:48:34;;;;;;;14.70;10.70;;;17.00;86.10;;;;;;4990471;28;20504;-78
2022/10/18 07:51:03;;;;;;;15.90;12.10;;;17.00;86.20;;;;;;5001070;28;20476;-78
2022/10/18 07:53:33;;;;;;;14.73;11.13;;;17.10;86.20;;;;;;4988188;28;20449;-79
2022/10/18 07:56:02;;;;;;;13.27;10.70;;;17.10;86.30;;;;;;4997307;28;20444;-77
2022/10/18 07:58:36;;;;;;;20.67;13.03;;;17.20;86.20;;;;;;5013243;28;20511;-77
2022/10/18 08:01:05;;;;;;;21.20;15.00;;;17.20;86.20;;;;;;4999949;28;20528;-76
2022/10/18 08:03:35;;;;;;;22.50;16.00;;;17.20;86.20;;;;;;4993837;28;20465;-78
2022/10/18 08:06:05;;;;;;;20.53;15.67;;;17.30;86.30;;;;;;4998727;28;20455;-78
2022/10/18 08:08:33;;;;;;;23.80;16.90;;;17.30;86.30;;;;;;4994916;28;20458;-78
2022/10/18 08:11:02;;;;;;;21.87;16.40;;;17.30;86.40;;;;;;5001503;28;20445;-78
2022/10/18 08:13:30;;;;;;;17.77;11.83;;;17.40;86.40;;;;;;4998622;28;20481;-78
2022/10/18 08:16:02;;;;;;;16.40;10.70;;;17.40;86.40;;;;;;5000190;28;21193;-78
2022/10/18 08:18:31;;;;;;;13.57;10.43;;;17.40;86.40;;;;;;5004034;28;20465;-77
2022/10/18 08:21:01;;;;;;;17.20;10.97;;;17.50;86.50;;;;;;5015629;28;21018;-78
2022/10/18 08:23:29;;;;;;;14.67;9.43;;;17.50;86.60;;;;;;4996982;28;20511;-77
2022/10/18 08:26:01;;;;;;;11.73;9.80;;;17.50;86.60;;;;;;5017270;28;20492;-79
2022/10/18 08:28:29;;;;;;;13.10;9.13;;;17.60;86.60;;;;;;4996593;28;20466;-77
2022/10/18 08:30:57;;;;;;;15.93;9.03;;;17.60;86.60;;;;;;5002152;28;20457;-77
2022/10/18 08:33:25;;;;;;;11.87;8.80;;;17.60;86.60;;;;;;4998178;28;20478;-78
2022/10/18 08:35:58;;;;;;;12.10;7.70;;;17.60;86.60;;;;;;4994188;28;21240;-78
2022/10/18 08:38:29;;;;;;;10.67;7.03;;;17.60;86.50;;;;;;4995844;28;20454;-78
2022/10/18 08:40:59;;;;;;;12.60;8.10;;;17.60;86.70;;;;;;4996196;28;20502;-80
2022/10/18 08:43:34;;;;;;;18.73;8.83;;;17.60;86.50;;;;;;5002193;28;20465;-80
2022/10/18 08:46:11;;;;;;;12.37;8.23;;;17.60;86.70;;;;;;5002169;28;20483;-78
2022/10/18 08:48:42;;;;;;;17.00;9.80;;;17.60;86.70;;;;;;5000809;28;20528;-79
2022/10/18 08:51:20;;;;;;;18.87;10.57;;;17.60;86.70;;;;;;5004329;28;20489;-79
2022/10/18 08:53:54;;;;;;;15.70;10.17;;;17.60;86.60;;;;;;4999382;28;20476;-79
2022/10/18 08:56:23;;;;;;;16.53;9.17;;;17.60;86.50;;;;;;4997565;28;20526;-79
2022/10/18 08:58:51;;;;;;;19.40;10.17;;;17.50;86.60;;;;;;5016361;28;20481;-79
2022/10/18 09:01:32;;;;;;;16.93;8.60;;;17.50;86.60;;;;;;5014936;28;20487;-78
2022/10/18 09:04:22;;;;;;;20.70;9.03;;;17.50;86.70;;;;;;5001494;28;20548;-79
2022/10/18 09:07:05;;;;;;;16.70;9.20;;;17.50;86.60;;;;;;4993738;28;20469;-77
2022/10/18 09:09:41;;;;;;;15.47;9.23;;;17.50;86.70;;;;;;5021922;28;20523;-79
2022/10/18 09:12:26;;;;;;;20.60;8.87;;;17.50;86.70;;;;;;5013209;28;20565;-79
2022/10/18 09:15:09;;;;;;;19.43;9.37;;;17.50;86.70;;;;;;4998344;28;20954;-79
2022/10/18 09:17:51;;;;;;;16.37;8.93;;;17.50;86.70;;;;;;5000111;28;20515;-79
2022/10/18 09:20:23;;;;;;;18.70;9.47;;;17.50;86.70;;;;;;5001631;28;21004;-78
2022/10/18 09:22:55;;;;;;;16.67;10.23;;;17.50;86.80;;;;;;4999579;28;20484;-77
2022/10/18 09:25:26;;;;;;;16.63;10.40;;;17.60;86.80;;;;;;5001711;28;20445;-79
2022/10/18 09:27:56;;;;;;;18.60;9.90;;;17.60;86.80;;;;;;5003305;28;20469;-79
2022/10/18 09:30:39;;;;;;;15.80;9.23;;;17.60;86.90;;;;;;5002671;28;20480;-78
2022/10/18 09:33:28;;;;;;;19.63;9.60;;;17.60;86.90;;;;;;5020829;28;20491;-78
2022/10/18 09:35:58;;;;;;;14.60;8.97;;;17.70;86.90;;;;;;5001918;28;21180;-77
2022/10/18 09:38:32;;;;;;;19.57;10.10;;;17.70;87.10;;;;;;5000900;28;20872;-77
2022/10/18 09:41:07;;;;;;;23.80;11.03;;;17.80;87.30;;;;;;4999123;28;20458;-78
2022/10/18 09:43:47;;;;;;;13.20;10.60;;;17.80;87.30;;;;;;5006379;28;20945;-78
2022/10/18 09:46:17;;;;;;;23.53;11.97;;;17.80;87.30;;;;;;5021370;28;20449;-78
2022/10/18 09:48:49;;;;;;;26.50;11.90;;;17.90;87.40;;;;;;5005263;28;20502;-77
2022/10/18 09:51:21;;;;;;;19.20;12.90;;;18.00;87.40;;;;;;5007022;28;20472;-78
2022/10/18 09:54:03;;;;;;;20.83;12.10;;;18.00;87.50;;;;;;4998556;28;20449;-79
2022/10/18 09:56:37;;;;;;;15.70;10.20;;;18.00;87.50;;;;;;5008644;28;20850;-77
2022/10/18 09:59:34;;;;;;;15.13;10.40;;;18.10;87.50;;;;;;5008036;28;20552;-79
2022/10/18 10:02:02;;;;;;;22.40;11.90;;;18.10;87.50;;;;;;5002113;28;20494;-80
2022/10/18 10:04:30;;;;;;;22.20;12.30;;;18.20;87.50;;;;;;5005599;28;20485;-78
2022/10/18 10:07:01;;;;;;;19.10;12.17;;;18.20;87.60;;;;;;5001176;28;20857;-78
2022/10/18 10:09:31;;;;;;;13.87;11.23;;;18.20;87.70;;;;;;4998867;28;20449;-77
2022/10/18 10:12:01;;;;;;;14.90;10.00;;;18.20;87.80;;;;;;5000738;28;20480;-78
2022/10/18 10:14:30;;;;;;;20.37;10.90;;;18.30;87.80;;;;;;5000772;28;21160;-78
2022/10/18 10:17:02;;;;;;;15.47;9.47;;;18.30;87.90;;;;;;5000158;28;20449;-78
2022/10/18 10:19:32;;;;;;;18.77;10.70;;;18.40;87.90;;;;;;5001184;28;20457;-78
2022/10/18 10:22:05;;;;;;;14.83;10.60;;;18.40;87.90;;;;;;5012640;28;20485;-80
2022/10/18 10:24:46;;;;;;;17.23;10.20;;;18.40;88.00;;;;;;5004869;28;21318;-79
2022/10/18 10:27:20;;;;;;;14.57;10.53;;;18.50;88.00;;;;;;4997089;28;20464;-79
2022/10/18 10:29:56;;;;;;;19.43;10.20;;;18.50;87.90;;;;;;4997652;28;20955;-78
2022/10/18 10:32:31;;;;;;;15.07;10.83;;;18.60;88.00;;;;;;5003312;28;20473;-78
2022/10/18 10:34:59;;;;;;;15.20;11.53;;;18.60;88.00;;;;;;5000618;28;21160;-79
2022/10/18 10:37:31;;;;;;;15.47;9.70;;;18.60;87.90;;;;;;4998701;28;20457;-78
2022/10/18 10:40:15;;;;;;;16.60;10.43;;;18.70;87.90;;;;;;5004849;28;20492;-78
2022/10/18 10:43:05;;;;;;;16.53;11.70;;;18.70;88.00;;;;;;5000025;28;20575;-79
2022/10/18 10:45:59;;;;;;;15.63;10.83;;;18.70;88.00;;;;;;4993809;28;20461;-79
2022/10/18 10:48:31;;;;;;;19.20;10.80;;;18.70;88.20;;;;;;4998568;28;20458;-79
2022/10/18 10:51:05;;;;;;;16.63;10.20;;;18.80;88.20;;;;;;4993366;28;20468;-78
2022/10/18 10:53:49;;;;;;;16.40;10.40;;;18.80;88.20;;;;;;4998549;28;20454;-78
2022/10/18 10:56:23;;;;;;;16.40;10.23;;;18.90;88.10;;;;;;4999273;28;20514;-79
2022/10/18 10:58:55;;;;;;;16.57;9.23;;;18.90;88.10;;;;;;5001013;28;21055;-78
2022/10/18 11:01:26;;;;;;;18.20;10.10;;;18.90;88.00;;;;;;5003778;28;20515;-79
2022/10/18 11:03:56;;;;;;;14.60;10.57;;;18.90;88.00;;;;;;4997294;28;20489;-79
2022/10/18 11:06:46;;;;;;;17.10;10.17;;;19.00;88.00;;;;;;5010588;28;20453;-77
2022/10/18 11:09:41;;;;;;;18.90;12.10;;;19.00;87.90;;;;;;4992879;28;20510;-78
2022/10/18 11:12:19;;;;;;;22.10;11.17;;;19.00;87.90;;;;;;4991537;28;21329;-79
2022/10/18 11:14:57;;;;;;;17.00;11.10;;;19.00;88.00;;;;;;5013188;28;21009;-77
2022/10/18 11:17:32;;;;;;;18.97;11.20;;;19.00;88.00;;;;;;4993678;28;20508;-78
2022/10/18 11:20:19;;;;;;;16.63;12.53;;;19.00;88.10;;;;;;4998191;28;20453;-77
2022/10/18 11:22:59;;;;;;;16.50;12.40;;;19.00;88.10;;;;;;5016493;28;20512;-79
2022/10/18 11:25:49;;;;;;;16.73;12.73;;;19.10;88.10;;;;;;4996623;28;20529;-78
2022/10/18 11:28:30;;;;;;;25.97;14.70;;;19.10;88.10;;;;;;4999840;28;21512;-79
2022/10/18 11:31:13;;;;;;;17.73;13.93;;;19.10;88.10;;;;;;5016402;28;20461;-79
2022/10/18 11:33:53;;;;;;;18.30;13.67;;;19.10;88.20;;;;;;5004451;28;20890;-77
2022/10/18 11:36:45;;;;;;;21.37;13.30;;;19.10;88.20;;;;;;4996777;28;20454;-79
2022/10/18 11:39:44;;;;;;;20.90;13.33;;;19.20;88.10;;;;;;4995323;28;21018;-79
2022/10/18 11:42:21;;;;;;;19.60;14.50;;;19.20;88.10;;;;;;4999922;28;20483;-78
2022/10/18 11:45:01;;;;;;;17.80;14.00;;;19.20;88.10;;;;;;4996204;28;20462;-79
2022/10/18 11:47:36;;;;;;;22.43;14.17;;;19.20;88.10;;;;;;4996954;28;20454;-79
2022/10/18 11:50:12;;;;;;;18.87;13.30;;;19.20;88.10;;;;;;5002141;28;20485;-80
2022/10/18 11:52:49;;;;;;;21.23;13.63;;;19.20;88.10;;;;;;4998206;28;20473;-77
2022/10/18 11:55:30;;;;;;;18.80;13.50;;;19.30;88.10;;;;;;4996615;28;20453;-79
2022/10/18 11:58:10;;;;;;;18.77;13.87;;;19.30;88.20;;;;;;5014720;28;20613;-78
2022/10/18 12:00:47;;;;;;;15.60;12.50;;;19.30;88.20;;;;;;4997571;28;20454;-78
2022/10/18 12:03:35;;;;;;;18.00;13.00;;;19.30;88.20;;;;;;4999639;28;20553;-78
2022/10/18 12:06:06;;;;;;;19.23;12.97;;;19.40;88.30;;;;;;5015113;28;20520;-79
2022/10/18 12:08:38;;;;;;;19.27;12.33;;;19.50;88.30;;;;;;4999015;28;20450;-79
2022/10/18 12:11:13;;;;;;;16.20;11.70;;;19.50;88.20;;;;;;4995455;28;20451;-77
2022/10/18 12:13:46;;;;;;;15.87;11.30;;;19.50;88.00;;;;;;5000770;28;20448;-78
2022/10/18 12:16:15;;;;;;;15.10;11.47;;;19.50;87.90;;;;;;4999404;28;21241;-79
2022/10/18 12:18:56;;;;;;;17.13;11.40;;;19.50;87.80;;;;;;5000679;28;20463;-79
2022/10/18 12:21:28;;;;;;;15.13;11.33;;;19.50;87.80;;;;;;5014121;28;20569;-79
2022/10/18 12:23:59;;;;;;;17.10;10.40;;;19.50;87.70;;;;;;5000739;28;20512;-77
2022/10/18 12:26:28;;;;;;;14.60;10.30;;;19.50;87.70;;;;;;5000255;28;21225;-79
2022/10/18 12:29:20;;;;;;;15.10;10.63;;;19.50;87.60;;;;;;5000416;28;20447;-77
2022/10/18 12:31:52;;;;;;;14.70;9.70;;;19.50;87.60;;;;;;5018578;28;20483;-78
2022/10/18 12:34:29;;;;;;;12.73;9.63;;;19.50;87.60;;;;;;5000380;28;20450;-79
2022/10/18 12:37:26;;;;;;;14.40;10.50;;;19.40;87.50;;;;;;5019581;28;20466;-77
2022/10/18 12:39:58;;;;;;;14.73;9.67;;;19.50;87.30;;;;;;5006604;28;21040;-79
2022/10/18 12:42:47;;;;;;;13.47;10.57;;;19.50;87.40;;;;;;5018319;28;20517;-77
2022/10/18 12:45:31;;;;;;;12.33;9.47;;;19.40;87.40;;;;;;5002483;28;20475;-76
2022/10/18 12:48:01;;;;;;;13.53;9.50;;;19.50;87.40;;;;;;5005180;28;20538;-77
2022/10/18 12:50:34;;;;;;;11.90;8.60;;;19.50;87.40;;;;;;5004614;28;20517;-78
2022/10/18 12:53:06;;;;;;;10.13;8.00;;;19.50;87.40;;;;;;5002042;28;20481;-79
2022/10/18 12:55:36;;;;;;;11.57;6.90;;;19.50;87.50;;;;;;5023390;28;20484;-78
2022/10/18 12:58:21;;;;;;;10.27;6.60;;;19.50;87.30;;;;;;5002838;28;20449;-79
2022/10/18 13:00:55;;;;;;;10.20;5.60;;;19.50;87.10;;;;;;5004360;28;21001;-79